Time;durP1;ratioP1;P1;durP2;ratioP2;P2;SDS_P1;SDS_P2;PMS_P1;PMS_P2;Temp;Humidity;BMP_temperature;BMP_pressure;BME280_temperature;BME280_humidity;BME280_pressure;Samples;Min_cycle;Max_cycle;Signal;HPM_P1;HPM_P2
2022/04/07 00:01:37;;;;;;;44.60;27.77;;;7.40;79.40;;;;;;5092650;28;20036;-13
2022/04/07 00:04:03;;;;;;;46.83;29.67;;;7.40;79.60;;;;;;5092517;28;20027;-13
2022/04/07 00:06:29;;;;;;;42.53;27.33;;;7.30;79.70;;;;;;5092264;28;20035;-14
2022/04/07 00:08:55;;;;;;;45.38;29.13;;;7.30;79.90;;;;;;5091154;28;20058;-12
2022/04/07 00:11:22;;;;;;;43.22;26.25;;;7.30;80.10;;;;;;5096182;28;20024;-13
2022/04/07 00:13:48;;;;;;;39.83;26.45;;;7.20;80.40;;;;;;5096507;28;20107;-13
2022/04/07 00:16:13;;;;;;;38.03;25.27;;;7.30;80.20;;;;;;5095864;28;20111;-13
2022/04/07 00:18:39;;;;;;;35.03;23.45;;;7.30;80.20;;;;;;5095927;28;20032;-13
2022/04/07 00:21:11;;;;;;;32.60;22.45;;;7.30;80.20;;;;;;5096014;28;20089;-13
2022/04/07 00:23:39;;;;;;;33.28;22.00;;;7.20;80.10;;;;;;5096041;28;20028;-13
2022/04/07 00:26:05;;;;;;;33.60;23.25;;;7.20;80.00;;;;;;5095888;28;20024;-13
2022/04/07 00:28:31;;;;;;;33.03;21.02;;;7.10;79.90;;;;;;5095757;28;20024;-13
2022/04/07 00:30:58;;;;;;;29.35;21.42;;;7.10;79.90;;;;;;5096202;28;20031;-13
2022/04/07 00:33:24;;;;;;;31.33;21.75;;;7.10;79.90;;;;;;5096132;28;20032;-13
2022/04/07 00:35:50;;;;;;;31.73;21.52;;;7.00;79.90;;;;;;5095761;28;20024;-14
2022/04/07 00:38:16;;;;;;;34.72;21.65;;;6.90;79.80;;;;;;5095506;28;20024;-15
2022/04/07 00:40:42;;;;;;;47.65;29.13;;;6.90;79.70;;;;;;5096234;28;20028;-13
2022/04/07 00:43:07;;;;;;;36.40;25.02;;;6.80;79.90;;;;;;5095626;28;20501;-13
2022/04/07 00:45:33;;;;;;;33.22;21.90;;;6.70;80.30;;;;;;5095595;28;20024;-13
2022/04/07 00:47:59;;;;;;;34.25;23.60;;;6.60;80.60;;;;;;5095505;28;20099;-13
2022/04/07 00:50:25;;;;;;;33.22;23.20;;;6.60;80.40;;;;;;5094021;28;20161;-13
2022/04/07 00:53:00;;;;;;;36.17;23.00;;;6.40;80.40;;;;;;5096051;28;20491;-13
2022/04/07 00:55:27;;;;;;;32.00;20.95;;;6.40;80.40;;;;;;5095378;28;20035;-12
2022/04/07 00:57:53;;;;;;;36.13;23.77;;;6.40;80.40;;;;;;5095590;28;20020;-13
2022/04/07 01:00:19;;;;;;;34.08;22.33;;;6.40;80.50;;;;;;5095038;28;20488;-13
2022/04/07 01:02:44;;;;;;;43.35;26.92;;;6.40;80.60;;;;;;5095616;28;20024;-13
2022/04/07 01:05:10;;;;;;;28.38;19.33;;;6.30;81.10;;;;;;5095748;28;20024;-13
2022/04/07 01:07:39;;;;;;;28.52;19.05;;;6.30;80.60;;;;;;5095272;28;20044;-13
2022/04/07 01:10:09;;;;;;;27.40;17.90;;;6.30;80.50;;;;;;5095472;28;20103;-14
2022/04/07 01:12:35;;;;;;;41.15;26.95;;;6.30;80.40;;;;;;5094951;28;20031;-13
2022/04/07 01:15:04;;;;;;;37.17;25.02;;;6.40;80.70;;;;;;5095007;28;20020;-14
2022/04/07 01:17:30;;;;;;;35.78;23.02;;;6.40;80.70;;;;;;5095248;28;20108;-13
2022/04/07 01:19:56;;;;;;;46.20;28.45;;;6.30;80.40;;;;;;5094746;28;20491;-12
2022/04/07 01:22:23;;;;;;;45.50;29.25;;;6.40;80.30;;;;;;5094955;28;20023;-12
2022/04/07 01:24:50;;;;;;;41.67;26.42;;;6.40;80.40;;;;;;5094815;28;20024;-12
2022/04/07 01:27:18;;;;;;;39.15;24.95;;;6.40;80.50;;;;;;5094829;28;20035;-12
2022/04/07 01:29:44;;;;;;;43.00;27.00;;;6.40;80.50;;;;;;5094723;28;20020;-12
2022/04/07 01:32:39;;;;;;;38.50;24.27;;;6.50;80.60;;;;;;5094781;28;20027;-12
2022/04/07 01:35:06;;;;;;;40.90;25.58;;;6.60;80.70;;;;;;5094583;28;20388;-13
2022/04/07 01:37:33;;;;;;;43.88;27.33;;;6.60;80.60;;;;;;5094505;28;20059;-13
2022/04/07 01:40:01;;;;;;;47.03;28.77;;;6.60;80.50;;;;;;5094769;28;20111;-12
2022/04/07 01:42:28;;;;;;;41.17;25.55;;;6.70;80.60;;;;;;5094543;28;20051;-13
2022/04/07 01:44:57;;;;;;;35.58;22.02;;;6.70;80.70;;;;;;5094637;28;20028;-13
2022/04/07 01:47:24;;;;;;;36.47;24.90;;;6.70;81.10;;;;;;5094793;28;20028;-12
2022/04/07 01:50:02;;;;;;;35.33;23.88;;;6.80;81.30;;;;;;5094881;28;20020;-13
2022/04/07 01:52:30;;;;;;;33.75;21.98;;;6.80;81.10;;;;;;5094139;28;20031;-13
2022/04/07 01:54:58;;;;;;;36.03;23.10;;;6.80;81.10;;;;;;5094819;28;20020;-13
2022/04/07 01:57:25;;;;;;;33.15;21.77;;;6.80;81.20;;;;;;5094385;28;20024;-13
2022/04/07 01:59:51;;;;;;;30.23;19.60;;;6.90;81.20;;;;;;5094087;28;20035;-13
2022/04/07 02:02:18;;;;;;;27.70;18.35;;;6.90;80.80;;;;;;5093903;28;20123;-13
2022/04/07 02:04:56;;;;;;;56.83;33.33;;;7.00;80.60;;;;;;5093937;28;20028;-12
2022/04/07 02:07:22;;;;;;;37.67;23.40;;;7.10;81.10;;;;;;5094042;28;20032;-14
2022/04/07 02:09:48;;;;;;;32.72;21.80;;;7.10;80.90;;;;;;5094848;28;20020;-13
2022/04/07 02:12:14;;;;;;;31.33;21.58;;;7.10;80.70;;;;;;5093796;28;20031;-14
2022/04/07 02:14:40;;;;;;;38.10;23.92;;;7.20;80.60;;;;;;5093825;28;20365;-12
2022/04/07 02:17:06;;;;;;;37.00;21.95;;;7.20;80.80;;;;;;5094946;28;20055;-12
2022/04/07 02:19:32;;;;;;;36.15;23.10;;;7.20;80.50;;;;;;5092410;28;20095;-13
2022/04/07 02:21:59;;;;;;;38.95;24.83;;;7.20;80.60;;;;;;5094112;28;20490;-13
2022/04/07 02:24:25;;;;;;;54.38;33.80;;;7.20;80.40;;;;;;5092291;28;20024;-13
2022/04/07 02:26:51;;;;;;;56.70;31.10;;;7.10;80.10;;;;;;5094425;28;20035;-13
2022/04/07 02:29:16;;;;;;;46.53;28.63;;;7.00;80.20;;;;;;5093664;28;20016;-13
2022/04/07 02:31:42;;;;;;;46.33;28.73;;;7.00;80.40;;;;;;5091829;28;20024;-12
2022/04/07 02:34:08;;;;;;;48.25;27.08;;;6.90;80.60;;;;;;5093946;28;20039;-13
2022/04/07 02:36:34;;;;;;;41.00;23.98;;;6.90;80.60;;;;;;5093427;28;20465;-12
2022/04/07 02:39:00;;;;;;;42.30;25.52;;;6.90;80.70;;;;;;5093872;28;20064;-13
2022/04/07 02:41:28;;;;;;;39.35;25.10;;;7.00;80.70;;;;;;5093837;28;20047;-12
2022/04/07 02:43:55;;;;;;;37.78;23.88;;;7.00;80.80;;;;;;5093672;28;20067;-12
2022/04/07 02:46:21;;;;;;;47.75;28.25;;;7.00;80.70;;;;;;5093496;28;20107;-13
2022/04/07 02:48:47;;;;;;;40.22;25.45;;;7.10;80.70;;;;;;5093593;28;20056;-12
2022/04/07 02:51:13;;;;;;;56.72;31.85;;;7.10;80.90;;;;;;5093357;28;20031;-12
2022/04/07 02:53:39;;;;;;;49.83;30.17;;;7.10;80.40;;;;;;5093579;28;20062;-13
2022/04/07 02:56:04;;;;;;;41.13;25.27;;;7.10;81.80;;;;;;5093313;28;20369;-13
2022/04/07 02:58:30;;;;;;;42.17;25.60;;;7.10;81.40;;;;;;5093193;28;20028;-13
2022/04/07 03:00:56;;;;;;;39.28;24.27;;;7.20;81.30;;;;;;5093516;28;20028;-13
2022/04/07 03:03:22;;;;;;;40.75;24.77;;;7.20;81.10;;;;;;5094016;28;20082;-12
2022/04/07 03:05:48;;;;;;;48.70;28.80;;;7.20;80.90;;;;;;5093136;28;20036;-13
2022/04/07 03:08:14;;;;;;;49.95;29.05;;;7.30;80.90;;;;;;5092751;28;20052;-13
2022/04/07 03:10:40;;;;;;;59.40;33.75;;;7.30;80.80;;;;;;5091913;28;20028;-12
2022/04/07 03:13:06;;;;;;;44.28;26.83;;;7.40;80.40;;;;;;5093115;28;20035;-13
2022/04/07 03:15:32;;;;;;;42.75;24.73;;;7.30;80.60;;;;;;5091859;28;20024;-13
2022/04/07 03:17:58;;;;;;;42.58;25.73;;;7.30;80.40;;;;;;5093366;28;20130;-12
2022/04/07 03:20:24;;;;;;;42.25;25.90;;;7.30;80.40;;;;;;5093491;28;20032;-13
2022/04/07 03:22:49;;;;;;;48.90;28.05;;;7.30;80.50;;;;;;5091793;28;20101;-13
2022/04/07 03:25:15;;;;;;;43.00;25.27;;;7.20;80.30;;;;;;5093018;28;20048;-13
2022/04/07 03:27:41;;;;;;;43.30;26.25;;;7.20;80.60;;;;;;5093187;28;20025;-13
2022/04/07 03:30:08;;;;;;;48.22;26.45;;;7.20;80.50;;;;;;5093241;28;20024;-13
2022/04/07 03:32:34;;;;;;;46.00;27.33;;;7.20;80.50;;;;;;5092732;28;20055;-12
2022/04/07 03:35:00;;;;;;;50.55;28.17;;;7.20;80.50;;;;;;5092807;28;20063;-13
2022/04/07 03:37:26;;;;;;;47.22;27.00;;;7.30;80.50;;;;;;5092846;28;20028;-13
2022/04/07 03:39:52;;;;;;;66.10;36.78;;;7.40;80.50;;;;;;5093408;28;20044;-14
2022/04/07 03:42:18;;;;;;;61.58;35.30;;;7.40;80.70;;;;;;5092719;28;20085;-13
2022/04/07 03:44:43;;;;;;;54.90;30.80;;;7.40;80.50;;;;;;5096375;28;20107;-13
2022/04/07 03:47:09;;;;;;;56.60;31.50;;;7.50;80.40;;;;;;5096716;28;20031;-13
2022/04/07 03:49:35;;;;;;;57.00;32.47;;;7.60;80.20;;;;;;5096563;28;20024;-13
2022/04/07 03:52:02;;;;;;;56.55;31.75;;;7.60;80.30;;;;;;5096618;28;20521;-13
2022/04/07 03:54:28;;;;;;;63.38;34.45;;;7.60;80.40;;;;;;5097000;28;20570;-13
2022/04/07 03:56:56;;;;;;;59.45;34.50;;;7.70;80.50;;;;;;5096540;28;20032;-13
2022/04/07 03:59:22;;;;;;;53.95;32.00;;;7.80;80.40;;;;;;5097246;28;20119;-12
2022/04/07 04:01:48;;;;;;;54.95;31.67;;;7.80;80.30;;;;;;5096715;28;20047;-13
2022/04/07 04:04:15;;;;;;;49.28;30.95;;;7.90;80.30;;;;;;5096064;28;20020;-12
2022/04/07 04:06:42;;;;;;;53.90;31.65;;;7.90;80.20;;;;;;5096637;28;20039;-13
2022/04/07 04:09:08;;;;;;;53.20;30.92;;;7.90;80.60;;;;;;5095872;28;20048;-14
2022/04/07 04:11:34;;;;;;;51.42;30.60;;;7.90;80.70;;;;;;5096356;28;20027;-13
2022/04/07 04:14:00;;;;;;;53.58;32.13;;;7.90;80.40;;;;;;5096455;28;20424;-13
2022/04/07 04:16:26;;;;;;;59.70;35.45;;;8.00;80.30;;;;;;5096085;28;20090;-13
2022/04/07 04:18:52;;;;;;;76.20;40.00;;;8.00;79.90;;;;;;5096476;28;20032;-13
2022/04/07 04:21:18;;;;;;;54.25;32.25;;;8.10;80.10;;;;;;5096423;28;20403;-13
2022/04/07 04:23:44;;;;;;;62.75;35.08;;;8.10;80.30;;;;;;5096371;28;20463;-12
2022/04/07 04:26:10;;;;;;;52.42;31.30;;;8.10;80.70;;;;;;5096177;28;20024;-12
2022/04/07 04:28:36;;;;;;;46.45;27.48;;;8.00;80.80;;;;;;5095841;28;20463;-13
2022/04/07 04:31:02;;;;;;;53.40;30.58;;;8.00;80.70;;;;;;5094632;28;20031;-13
2022/04/07 04:33:28;;;;;;;47.05;27.77;;;8.00;81.40;;;;;;5096214;28;20036;-13
2022/04/07 04:35:54;;;;;;;57.80;31.42;;;8.00;80.90;;;;;;5095665;28;20456;-13
2022/04/07 04:38:20;;;;;;;63.13;36.00;;;8.00;80.70;;;;;;5095825;28;20034;-13
2022/04/07 04:40:46;;;;;;;52.05;30.45;;;8.00;80.60;;;;;;5096023;28;20028;-13
2022/04/07 04:43:12;;;;;;;53.58;30.40;;;8.00;80.40;;;;;;5096116;28;20484;-13
2022/04/07 04:45:38;;;;;;;47.28;27.30;;;8.00;81.20;;;;;;5095929;28;20078;-13
2022/04/07 04:48:04;;;;;;;44.25;26.08;;;8.00;80.70;;;;;;5095603;28;20395;-13
2022/04/07 04:50:30;;;;;;;46.83;28.13;;;8.10;80.30;;;;;;5095615;28;20126;-13
2022/04/07 04:52:56;;;;;;;66.60;37.08;;;8.10;80.40;;;;;;5095561;28;20434;-13
2022/04/07 04:55:22;;;;;;;72.68;38.92;;;8.10;80.30;;;;;;5094897;28;20057;-13
2022/04/07 04:57:48;;;;;;;58.35;33.65;;;8.00;80.30;;;;;;5095374;28;20051;-12
2022/04/07 05:00:14;;;;;;;68.28;36.17;;;8.00;80.30;;;;;;5093775;28;20028;-12
2022/04/07 05:02:40;;;;;;;66.90;37.55;;;8.00;80.20;;;;;;5095280;28;20488;-13
2022/04/07 05:05:07;;;;;;;56.72;32.92;;;8.00;80.50;;;;;;5093917;28;20059;-13
2022/04/07 05:07:34;;;;;;;65.05;35.20;;;8.10;80.30;;;;;;5095296;28;20474;-12
2022/04/07 05:10:00;;;;;;;64.93;36.22;;;8.10;80.40;;;;;;5095731;28;20028;-13
2022/04/07 05:12:28;;;;;;;57.58;33.35;;;8.10;80.30;;;;;;5095184;28;20076;-13
2022/04/07 05:14:54;;;;;;;53.88;32.08;;;8.10;80.30;;;;;;5095924;28;20047;-12
2022/04/07 05:17:20;;;;;;;58.90;34.22;;;8.10;80.30;;;;;;5095295;28;20492;-12
2022/04/07 05:19:47;;;;;;;72.13;38.35;;;8.10;80.50;;;;;;5093501;28;20036;-12
2022/04/07 05:22:13;;;;;;;53.88;31.30;;;8.20;80.40;;;;;;5094781;28;20032;-13
2022/04/07 05:24:39;;;;;;;64.35;36.47;;;8.30;80.40;;;;;;5094736;28;20031;-12
2022/04/07 05:27:05;;;;;;;51.75;30.83;;;8.30;80.60;;;;;;5095299;28;20098;-11
2022/04/07 05:29:32;;;;;;;52.55;30.63;;;8.40;80.40;;;;;;5095013;28;20149;-11
2022/04/07 05:31:58;;;;;;;71.07;40.42;;;8.50;80.40;;;;;;5095018;28;20020;-12
2022/04/07 05:34:23;;;;;;;47.47;29.05;;;8.60;80.40;;;;;;5094680;28;20078;-12
2022/04/07 05:36:49;;;;;;;48.72;28.00;;;8.60;80.20;;;;;;5095110;28;20016;-12
2022/04/07 05:39:15;;;;;;;50.47;28.77;;;8.70;79.80;;;;;;5094498;28;20028;-12
2022/04/07 05:41:41;;;;;;;65.53;35.20;;;8.80;79.90;;;;;;5094712;28;20028;-12
2022/04/07 05:44:07;;;;;;;53.97;31.52;;;8.90;80.00;;;;;;5094787;28;20024;-12
2022/04/07 05:46:33;;;;;;;67.70;38.50;;;9.00;79.60;;;;;;5094525;28;20027;-12
2022/04/07 05:48:59;;;;;;;55.30;31.45;;;9.10;79.50;;;;;;5093012;28;20028;-12
2022/04/07 05:51:25;;;;;;;71.95;40.65;;;9.20;79.50;;;;;;5094646;28;20048;-12
2022/04/07 05:53:51;;;;;;;77.63;41.67;;;9.20;79.10;;;;;;5094361;28;20480;-12
2022/04/07 05:56:17;;;;;;;57.30;34.70;;;9.40;79.30;;;;;;5094134;28;20028;-12
2022/04/07 05:58:43;;;;;;;60.50;36.28;;;9.40;79.80;;;;;;5094412;28;20035;-13
2022/04/07 06:01:10;;;;;;;58.88;34.15;;;9.40;79.60;;;;;;5094099;28;20492;-12
2022/04/07 06:03:36;;;;;;;61.22;34.20;;;9.50;79.20;;;;;;5094414;28;20107;-12
2022/04/07 06:06:02;;;;;;;64.72;37.75;;;9.60;78.70;;;;;;5093148;28;20035;-12
2022/04/07 06:08:28;;;;;;;54.25;33.20;;;9.70;79.00;;;;;;5093664;28;20048;-12
2022/04/07 06:10:54;;;;;;;75.40;43.38;;;9.90;79.00;;;;;;5093833;28;20032;-12
2022/04/07 06:13:20;;;;;;;91.07;50.22;;;9.90;78.50;;;;;;5093948;28;20027;-12
2022/04/07 06:15:46;;;;;;;71.50;42.85;;;10.00;77.80;;;;;;5094195;28;20111;-12
2022/04/07 06:18:13;;;;;;;66.70;37.03;;;10.10;77.50;;;;;;5092552;28;20390;-13
2022/04/07 06:20:40;;;;;;;64.50;38.38;;;10.10;77.70;;;;;;5093807;28;20043;-13
2022/04/07 06:23:06;;;;;;;63.88;38.00;;;10.20;77.70;;;;;;5093865;28;20522;-13
2022/04/07 06:25:32;;;;;;;63.70;39.47;;;10.30;77.90;;;;;;5092510;28;20028;-14
2022/04/07 06:27:59;;;;;;;61.85;37.97;;;10.40;77.70;;;;;;5094000;28;20035;-13
2022/04/07 06:30:25;;;;;;;63.65;38.17;;;10.60;77.20;;;;;;5093442;28;20055;-13
2022/04/07 06:32:52;;;;;;;64.78;38.10;;;10.70;77.40;;;;;;5093602;28;20071;-13
2022/04/07 06:35:18;;;;;;;63.95;37.97;;;10.80;77.20;;;;;;5093479;28;20024;-13
2022/04/07 06:37:45;;;;;;;69.40;40.22;;;10.90;77.30;;;;;;5093893;28;20021;-15
2022/04/07 06:40:12;;;;;;;68.30;39.75;;;10.90;76.80;;;;;;5094253;28;20036;-13
2022/04/07 06:42:38;;;;;;;67.63;40.00;;;11.00;76.50;;;;;;5093333;28;20089;-13
2022/04/07 06:45:05;;;;;;;61.50;35.22;;;11.10;76.50;;;;;;5093733;28;20426;-13
2022/04/07 06:47:40;;;;;;;55.92;33.42;;;11.20;76.20;;;;;;5092155;28;20099;-13
2022/04/07 06:50:13;;;;;;;55.17;33.00;;;11.30;76.10;;;;;;5093292;28;20032;-13
2022/04/07 06:52:41;;;;;;;53.80;33.03;;;11.40;76.00;;;;;;5093678;28;20019;-13
2022/04/07 06:55:08;;;;;;;54.42;34.00;;;11.50;75.90;;;;;;5093643;28;20055;-13
2022/04/07 06:57:56;;;;;;;66.85;36.90;;;11.70;75.60;;;;;;5093258;28;20491;-14
2022/04/07 07:00:24;;;;;;;57.85;34.85;;;11.90;75.40;;;;;;5092941;28;20031;-13
2022/04/07 07:02:54;;;;;;;64.55;38.50;;;12.30;74.80;;;;;;5093711;28;20036;-13
2022/04/07 07:05:22;;;;;;;64.82;38.90;;;12.60;73.90;;;;;;5093348;28;20081;-12
2022/04/07 07:07:48;;;;;;;48.60;28.90;;;13.10;73.20;;;;;;5092881;28;20123;-12
2022/04/07 07:10:25;;;;;;;64.15;37.88;;;13.50;72.20;;;;;;5093080;28;20108;-12
2022/04/07 07:12:52;;;;;;;65.15;36.92;;;13.90;70.00;;;;;;5093117;28;20039;-12
2022/04/07 07:15:18;;;;;;;61.40;35.10;;;14.40;69.90;;;;;;5093452;28;20024;-12
2022/04/07 07:17:44;;;;;;;50.85;30.20;;;14.60;68.00;;;;;;5095569;28;20024;-13
2022/04/07 07:20:11;;;;;;;56.33;32.55;;;14.90;67.70;;;;;;5097059;28;20086;-13
2022/04/07 07:22:41;;;;;;;49.67;30.73;;;15.10;66.20;;;;;;5097256;28;20139;-13
2022/04/07 07:25:09;;;;;;;43.35;25.83;;;15.20;65.90;;;;;;5097159;28;20024;-13
2022/04/07 07:27:39;;;;;;;42.53;27.60;;;15.20;66.10;;;;;;5097033;28;20043;-13
2022/04/07 07:30:10;;;;;;;42.28;26.63;;;15.30;64.80;;;;;;5097181;28;20016;-13
2022/04/07 07:32:40;;;;;;;47.08;29.88;;;15.40;65.10;;;;;;5097180;28;20130;-13
2022/04/07 07:35:08;;;;;;;38.72;25.13;;;15.70;63.40;;;;;;5096912;28;20103;-12
2022/04/07 07:37:35;;;;;;;38.38;25.20;;;15.90;64.50;;;;;;5097224;28;20028;-12
2022/04/07 07:40:08;;;;;;;41.55;26.00;;;16.10;63.80;;;;;;5097003;28;20028;-12
2022/04/07 07:42:38;;;;;;;;;;;16.30;62.90;;;;;;5097296;28;20036;-12
2022/04/07 07:45:05;;;;;;;32.75;20.23;;;16.60;60.60;;;;;;5096724;28;20279;-13
2022/04/07 07:47:32;;;;;;;31.83;20.27;;;16.80;61.90;;;;;;5095691;28;20024;-12
2022/04/07 07:49:58;;;;;;;33.70;22.13;;;17.00;61.50;;;;;;5097005;28;20020;-12
2022/04/07 07:52:24;;;;;;;29.80;19.33;;;17.20;60.40;;;;;;5096488;28;20024;-13
2022/04/07 07:54:50;;;;;;;34.30;22.45;;;17.40;59.30;;;;;;5096832;28;20039;-12
2022/04/07 07:57:17;;;;;;;32.67;21.92;;;17.40;59.30;;;;;;5097190;28;20536;-13
2022/04/07 07:59:43;;;;;;;30.05;20.27;;;17.50;59.60;;;;;;5097069;28;20073;-13
2022/04/07 08:02:09;;;;;;;32.50;21.45;;;17.40;58.50;;;;;;5096507;28;20032;-13
2022/04/07 08:04:35;;;;;;;34.55;22.13;;;17.30;59.20;;;;;;5096451;28;20024;-13
2022/04/07 08:07:01;;;;;;;33.17;20.95;;;17.20;59.00;;;;;;5096649;28;20495;-13
2022/04/07 08:09:27;;;;;;;32.72;21.70;;;17.10;58.90;;;;;;5096727;28;20052;-13
2022/04/07 08:11:53;;;;;;;28.52;18.98;;;17.20;58.60;;;;;;5096590;28;20029;-12
2022/04/07 08:14:19;;;;;;;36.30;24.70;;;17.30;58.30;;;;;;5094905;28;20028;-12
2022/04/07 08:16:45;;;;;;;34.08;20.55;;;17.50;56.70;;;;;;5096415;28;20472;-13
2022/04/07 08:19:11;;;;;;;34.15;22.80;;;17.70;56.70;;;;;;5096291;28;20036;-12
2022/04/07 08:21:37;;;;;;;28.80;20.73;;;18.00;55.90;;;;;;5096310;28;20110;-14
2022/04/07 08:24:04;;;;;;;39.60;25.50;;;18.30;55.50;;;;;;5096096;28;20028;-13
2022/04/07 08:26:31;;;;;;;31.27;22.27;;;18.60;54.60;;;;;;5096111;28;20028;-12
2022/04/07 08:28:57;;;;;;;37.95;24.05;;;18.70;54.50;;;;;;5095385;28;20032;-12
2022/04/07 08:31:23;;;;;;;43.50;27.52;;;18.60;53.10;;;;;;5095898;28;20150;-12
2022/04/07 08:33:49;;;;;;;36.75;24.92;;;18.60;51.30;;;;;;5095857;28;20032;-13
2022/04/07 08:36:15;;;;;;;34.60;23.75;;;18.50;52.30;;;;;;5095653;28;20028;-13
2022/04/07 08:38:41;;;;;;;37.30;25.52;;;18.50;52.20;;;;;;5094513;28;20123;-13
2022/04/07 08:41:11;;;;;;;34.22;23.40;;;18.60;51.70;;;;;;5096043;28;20048;-13
2022/04/07 08:43:39;;;;;;;41.85;28.00;;;18.70;52.10;;;;;;5095684;28;20070;-12
2022/04/07 08:46:09;;;;;;;35.45;23.42;;;18.90;50.80;;;;;;5095639;28;20383;-12
2022/04/07 08:48:40;;;;;;;37.20;27.35;;;19.00;51.20;;;;;;5095680;28;20032;-13
2022/04/07 08:51:06;;;;;;;40.00;26.10;;;19.10;50.40;;;;;;5095745;28;20021;-13
2022/04/07 08:53:34;;;;;;;33.03;24.38;;;19.30;51.00;;;;;;5095802;28;20027;-13
2022/04/07 08:56:02;;;;;;;42.28;26.88;;;19.40;51.00;;;;;;5095438;28;20392;-13
2022/04/07 08:58:28;;;;;;;41.70;28.33;;;19.50;50.80;;;;;;5095191;28;20468;-13
2022/04/07 09:00:54;;;;;;;42.20;28.95;;;19.80;49.30;;;;;;5095643;28;20023;-13
2022/04/07 09:03:20;;;;;;;39.60;26.70;;;19.90;48.30;;;;;;5095657;28;20465;-12
2022/04/07 09:06:00;;;;;;;32.45;21.65;;;19.80;49.10;;;;;;5095152;28;20480;-12
2022/04/07 09:08:33;;;;;;;35.97;25.90;;;19.80;49.70;;;;;;5094982;28;20074;-12
2022/04/07 09:11:01;;;;;;;38.50;27.23;;;20.00;49.00;;;;;;5095838;28;20115;-13
2022/04/07 09:13:31;;;;;;;37.92;27.38;;;20.10;49.50;;;;;;5095525;28;20032;-13
2022/04/07 09:16:00;;;;;;;35.85;24.27;;;20.20;49.70;;;;;;5095380;28;20032;-12
2022/04/07 09:18:26;;;;;;;34.97;24.98;;;20.10;48.90;;;;;;5094683;28;20074;-13
2022/04/07 09:20:52;;;;;;;39.60;26.70;;;20.20;48.90;;;;;;5094851;28;20056;-13
2022/04/07 09:23:19;;;;;;;33.50;23.17;;;20.20;49.40;;;;;;5094069;28;20534;-13
2022/04/07 09:25:47;;;;;;;29.73;21.35;;;20.20;49.70;;;;;;5095168;28;20479;-13
2022/04/07 09:28:31;;;;;;;38.13;27.05;;;20.40;49.80;;;;;;5094759;28;20028;-14
2022/04/07 09:30:57;;;;;;;;;;;20.60;48.90;;;;;;5095257;28;20032;-13
2022/04/07 09:33:25;;;;;;;33.85;24.42;;;20.80;48.40;;;;;;5094711;28;19990;-13
2022/04/07 09:36:05;;;;;;;36.47;25.25;;;21.00;48.00;;;;;;5094857;28;20055;-13
2022/04/07 09:38:33;;;;;;;30.10;20.98;;;21.20;47.50;;;;;;5094359;28;20070;-12
2022/04/07 09:41:12;;;;;;;35.53;24.42;;;21.20;47.40;;;;;;5094462;28;20032;-14
2022/04/07 09:43:45;;;;;;;37.90;25.48;;;21.20;47.00;;;;;;5093235;28;20365;-13
2022/04/07 09:46:12;;;;;;;36.20;24.00;;;21.30;46.90;;;;;;5094621;28;20017;-14
2022/04/07 09:48:40;;;;;;;33.92;23.70;;;21.40;46.60;;;;;;5094453;28;20463;-13
2022/04/07 09:51:08;;;;;;;28.00;19.75;;;21.50;46.30;;;;;;5094439;28;20027;-13
2022/04/07 09:53:39;;;;;;;31.08;21.90;;;21.70;46.30;;;;;;5094666;28;20028;-13
2022/04/07 09:56:07;;;;;;;32.85;24.92;;;22.00;45.50;;;;;;5094299;28;20036;-12
2022/04/07 09:58:35;;;;;;;28.42;20.92;;;22.20;45.00;;;;;;5094596;28;20039;-13
2022/04/07 10:01:04;;;;;;;32.97;24.30;;;22.00;45.30;;;;;;5094504;28;20036;-12
2022/04/07 10:03:31;;;;;;;34.85;25.75;;;22.10;44.00;;;;;;5094134;28;20498;-13
2022/04/07 10:05:59;;;;;;;31.70;22.83;;;22.10;44.50;;;;;;5094370;28;20391;-12
2022/04/07 10:08:26;;;;;;;30.95;23.80;;;22.20;43.90;;;;;;5093716;28;20056;-12
2022/04/07 10:10:53;;;;;;;31.85;23.67;;;22.40;43.50;;;;;;5092805;28;20032;-12
2022/04/07 10:13:20;;;;;;;28.88;20.77;;;22.50;44.00;;;;;;5094209;28;20361;-13
2022/04/07 10:15:49;;;;;;;28.92;20.15;;;22.50;44.60;;;;;;5094244;28;20058;-12
2022/04/07 10:18:28;;;;;;;30.77;22.75;;;22.40;45.20;;;;;;5093863;28;20012;-12
2022/04/07 10:20:58;;;;;;;26.10;19.02;;;22.40;44.90;;;;;;5094100;28;20040;-13
2022/04/07 10:23:46;;;;;;;26.08;19.92;;;22.40;45.40;;;;;;5094084;28;20129;-13
2022/04/07 10:26:13;;;;;;;28.25;21.02;;;22.60;45.40;;;;;;5093795;28;20032;-12
2022/04/07 10:28:39;;;;;;;32.30;22.42;;;22.90;44.90;;;;;;5094052;28;20024;-13
2022/04/07 10:31:14;;;;;;;30.88;22.15;;;23.20;43.30;;;;;;5093629;28;20588;-13
2022/04/07 10:33:46;;;;;;;29.15;22.52;;;23.60;41.80;;;;;;5093934;28;20024;-11
2022/04/07 10:36:20;;;;;;;29.23;21.63;;;23.90;41.80;;;;;;5093885;28;20066;-12
2022/04/07 10:38:54;;;;;;;31.33;21.13;;;24.20;41.90;;;;;;5093797;28;20054;-13
2022/04/07 10:41:53;;;;;;;37.15;25.10;;;24.40;41.00;;;;;;5093850;28;20077;-13
2022/04/07 10:44:24;;;;;;;35.78;28.30;;;24.60;40.30;;;;;;5011495;28;20088;-12
2022/04/07 10:47:10;;;;;;;28.45;21.52;;;24.60;40.30;;;;;;5011577;28;20573;-12
2022/04/07 10:49:47;;;;;;;33.25;24.90;;;24.30;40.60;;;;;;5011447;28;20061;-12
2022/04/07 10:52:26;;;;;;;36.35;26.02;;;24.10;40.60;;;;;;5011222;28;20470;-15
2022/04/07 10:55:24;;;;;;;34.22;25.60;;;24.10;40.00;;;;;;5012060;28;20042;-13
2022/04/07 10:58:13;;;;;;;34.42;26.08;;;24.10;40.60;;;;;;4934055;29;20039;-12
2022/04/07 11:00:39;;;;;;;32.58;23.25;;;24.10;39.90;;;;;;4933974;29;20126;-12
2022/04/07 11:03:23;;;;;;;33.50;25.98;;;24.20;41.00;;;;;;4933887;29;20123;-12
2022/04/07 11:05:52;;;;;;;;;;;24.20;40.20;;;;;;4934172;29;20023;-13
2022/04/07 11:08:21;;;;;;;37.33;27.90;;;24.30;41.20;;;;;;4933659;29;19918;-12
2022/04/07 11:10:48;;;;;;;32.30;25.85;;;24.20;40.80;;;;;;4933852;29;20452;-13
2022/04/07 11:13:14;;;;;;;35.78;27.98;;;23.60;42.00;;;;;;4934320;29;20103;-12
2022/04/07 11:15:49;;;;;;;33.90;27.10;;;23.40;43.00;;;;;;4933769;29;20063;-13
2022/04/07 11:18:26;;;;;;;32.08;25.13;;;23.30;43.20;;;;;;4933663;29;20051;-12
2022/04/07 11:21:12;;;;;;;32.05;24.08;;;23.20;43.80;;;;;;5022440;28;20038;-13
2022/04/07 11:23:39;;;;;;;35.83;26.73;;;23.20;43.10;;;;;;5031151;28;20517;-12
2022/04/07 11:26:18;;;;;;;34.90;26.73;;;23.20;42.80;;;;;;5030815;28;20038;-12
2022/04/07 11:29:02;;;;;;;32.58;25.42;;;23.30;43.50;;;;;;5031419;28;20053;-13
2022/04/07 11:31:49;;;;;;;38.13;28.92;;;23.70;42.70;;;;;;5030900;28;20025;-12
2022/04/07 11:34:39;;;;;;;37.92;30.02;;;23.90;42.70;;;;;;5083446;28;20085;-12
2022/04/07 11:37:15;;;;;;;37.28;29.40;;;24.20;41.30;;;;;;5093323;28;20027;-13
2022/04/07 11:39:45;;;;;;;34.97;26.92;;;24.80;40.00;;;;;;5093198;28;20043;-13
2022/04/07 11:42:11;;;;;;;36.40;28.20;;;25.20;39.40;;;;;;5093082;28;20024;-13
2022/04/07 11:44:37;;;;;;;31.23;24.40;;;25.60;38.20;;;;;;5092632;28;20495;-13
2022/04/07 11:47:20;;;;;;;33.70;25.58;;;25.90;38.20;;;;;;5093451;28;20514;-13
2022/04/07 11:49:47;;;;;;;38.03;28.65;;;26.30;37.40;;;;;;5093097;28;20032;-12
2022/04/07 11:52:13;;;;;;;40.15;29.75;;;26.50;37.00;;;;;;5093081;28;20485;-12
2022/04/07 11:54:39;;;;;;;32.67;24.33;;;26.60;36.60;;;;;;5093098;28;20028;-10
2022/04/07 11:57:05;;;;;;;41.03;32.15;;;26.60;37.10;;;;;;5092709;28;20503;-9
2022/04/07 11:59:36;;;;;;;29.70;23.40;;;26.60;37.00;;;;;;5092586;28;20028;-10
2022/04/07 12:02:03;;;;;;;37.20;28.15;;;26.40;37.50;;;;;;5092957;28;20085;-10
2022/04/07 12:04:34;;;;;;;35.40;27.77;;;26.20;36.90;;;;;;5094058;28;20024;-9
2022/04/07 12:07:02;;;;;;;33.58;24.70;;;26.00;37.00;;;;;;5096375;28;20028;-9
2022/04/07 12:09:28;;;;;;;32.22;24.67;;;25.80;37.90;;;;;;5096250;28;20048;-12
2022/04/07 12:11:54;;;;;;;27.83;22.33;;;25.60;38.30;;;;;;5096308;28;20074;-11
2022/04/07 12:14:24;;;;;;;35.42;28.45;;;25.50;38.70;;;;;;5096034;28;20024;-12
2022/04/07 12:16:51;;;;;;;39.13;29.63;;;25.60;38.60;;;;;;5096281;28;20358;-11
2022/04/07 12:19:19;;;;;;;32.67;26.23;;;25.60;38.30;;;;;;5096458;28;20024;-12
2022/04/07 12:21:58;;;;;;;38.30;29.20;;;25.60;38.60;;;;;;5096110;28;20036;-12
2022/04/07 12:24:28;;;;;;;36.55;27.92;;;25.70;38.40;;;;;;5095932;28;20507;-12
2022/04/07 12:26:58;;;;;;;32.90;25.52;;;25.90;37.70;;;;;;5096043;28;20037;-12
2022/04/07 12:29:34;;;;;;;39.83;31.40;;;26.00;37.40;;;;;;5096315;28;20060;-12
2022/04/07 12:32:06;;;;;;;45.63;33.45;;;26.00;36.90;;;;;;5095962;28;20080;-12
2022/04/07 12:34:34;;;;;;;39.25;31.30;;;25.50;37.80;;;;;;5095645;28;20031;-12
2022/04/07 12:37:01;;;;;;;31.23;24.52;;;24.90;38.90;;;;;;5095881;28;20522;-12
2022/04/07 12:39:34;;;;;;;44.03;30.55;;;24.40;40.00;;;;;;5096161;28;20410;-12